sensor_id;sensor_type;location;lat;lon;timestamp;pressure;altitude;pressure_sealevel;temperature;humidity
42431;BME280;28070;47.462;19.036;2022-08-01T00:01:15;100020.06;;;17.35;67.51
42431;BME280;28070;47.462;19.036;2022-08-01T00:03:44;100025.59;;;17.32;67.70
42431;BME280;28070;47.462;19.036;2022-08-01T00:06:12;100028.47;;;17.29;67.89
42431;BME280;28070;47.462;19.036;2022-08-01T00:08:41;100021.34;;;17.29;67.63
42431;BME280;28070;47.462;19.036;2022-08-01T00:11:09;100021.22;;;17.31;67.91
42431;BME280;28070;47.462;19.036;2022-08-01T00:13:37;100034.47;;;17.32;67.53
42431;BME280;28070;47.462;19.036;2022-08-01T00:16:06;100023.47;;;17.37;67.48
42431;BME280;28070;47.462;19.036;2022-08-01T00:18:35;100021.97;;;17.33;68.21
42431;BME280;28070;47.462;19.036;2022-08-01T00:21:05;100024.19;;;17.26;67.95
42431;BME280;28070;47.462;19.036;2022-08-01T00:23:33;100013.91;;;17.20;68.52
42431;BME280;28070;47.462;19.036;2022-08-01T00:26:02;100013.72;;;17.23;67.16
42431;BME280;28070;47.462;19.036;2022-08-01T00:28:30;100007.63;;;17.21;69.32
42431;BME280;28070;47.462;19.036;2022-08-01T00:30:58;100009.44;;;17.21;68.57
42431;BME280;28070;47.462;19.036;2022-08-01T00:33:26;100006.97;;;17.18;68.54
42431;BME280;28070;47.462;19.036;2022-08-01T00:35:55;100001.81;;;17.15;69.62
42431;BME280;28070;47.462;19.036;2022-08-01T00:38:25;100006.22;;;17.01;71.20
42431;BME280;28070;47.462;19.036;2022-08-01T00:40:53;100006.66;;;16.95;71.24
42431;BME280;28070;47.462;19.036;2022-08-01T00:43:21;100008.84;;;16.89;71.71
42431;BME280;28070;47.462;19.036;2022-08-01T00:45:49;100003.63;;;16.73;73.09
42431;BME280;28070;47.462;19.036;2022-08-01T00:48:17;100006.84;;;16.64;73.32
42431;BME280;28070;47.462;19.036;2022-08-01T00:50:45;100006.19;;;16.60;74.10
42431;BME280;28070;47.462;19.036;2022-08-01T00:53:14;100002.31;;;16.52;74.42
42431;BME280;28070;47.462;19.036;2022-08-01T00:55:46;100006.69;;;16.53;74.76
42431;BME280;28070;47.462;19.036;2022-08-01T00:58:15;99999.91;;;16.47;75.44
42431;BME280;28070;47.462;19.036;2022-08-01T01:00:43;99997.81;;;16.38;76.01
42431;BME280;28070;47.462;19.036;2022-08-01T01:03:21;99998.75;;;16.37;75.67
42431;BME280;28070;47.462;19.036;2022-08-01T01:06:25;100010.56;;;16.33;76.18
42431;BME280;28070;47.462;19.036;2022-08-01T01:09:22;100001.53;;;16.35;76.13
42431;BME280;28070;47.462;19.036;2022-08-01T01:11:59;99998.94;;;16.34;76.35
42431;BME280;28070;47.462;19.036;2022-08-01T01:14:33;100002.56;;;16.33;76.54
42431;BME280;28070;47.462;19.036;2022-08-01T01:17:06;100002.97;;;16.27;77.74
42431;BME280;28070;47.462;19.036;2022-08-01T01:19:39;100004.00;;;16.24;78.25
42431;BME280;28070;47.462;19.036;2022-08-01T01:22:22;100014.66;;;16.24;78.03
42431;BME280;28070;47.462;19.036;2022-08-01T01:25:26;100019.50;;;16.17;78.72
42431;BME280;28070;47.462;19.036;2022-08-01T01:28:07;100017.06;;;16.29;78.11
42431;BME280;28070;47.462;19.036;2022-08-01T01:30:38;100017.31;;;16.38;76.25
42431;BME280;28070;47.462;19.036;2022-08-01T01:33:10;100008.56;;;16.36;76.96
42431;BME280;28070;47.462;19.036;2022-08-01T01:35:43;99998.56;;;16.26;77.67
42431;BME280;28070;47.462;19.036;2022-08-01T01:38:16;100004.19;;;16.21;77.03
42431;BME280;28070;47.462;19.036;2022-08-01T01:40:47;100001.72;;;16.18;78.62
42431;BME280;28070;47.462;19.036;2022-08-01T01:43:17;100000.75;;;16.05;79.70
42431;BME280;28070;47.462;19.036;2022-08-01T01:45:56;99993.09;;;15.99;79.55
42431;BME280;28070;47.462;19.036;2022-08-01T01:48:25;99990.94;;;15.91;79.74
42431;BME280;28070;47.462;19.036;2022-08-01T01:50:54;99994.06;;;15.98;76.96
42431;BME280;28070;47.462;19.036;2022-08-01T01:53:23;99984.47;;;16.09;75.28
42431;BME280;28070;47.462;19.036;2022-08-01T01:55:55;99991.25;;;16.29;73.52
42431;BME280;28070;47.462;19.036;2022-08-01T01:58:26;99990.41;;;16.43;71.92
42431;BME280;28070;47.462;19.036;2022-08-01T02:00:58;99983.13;;;16.59;70.73
42431;BME280;28070;47.462;19.036;2022-08-01T02:03:29;99985.06;;;16.71;69.61
42431;BME280;28070;47.462;19.036;2022-08-01T02:05:59;99979.69;;;16.86;68.41
42431;BME280;28070;47.462;19.036;2022-08-01T02:08:29;99987.75;;;16.98;67.39
42431;BME280;28070;47.462;19.036;2022-08-01T02:10:59;99980.03;;;17.08;67.14
42431;BME280;28070;47.462;19.036;2022-08-01T02:13:53;99982.00;;;17.19;66.57
42431;BME280;28070;47.462;19.036;2022-08-01T02:16:27;99978.91;;;17.25;65.43
42431;BME280;28070;47.462;19.036;2022-08-01T02:18:56;99980.31;;;17.30;65.38
42431;BME280;28070;47.462;19.036;2022-08-01T02:21:28;99987.91;;;17.36;65.05
42431;BME280;28070;47.462;19.036;2022-08-01T02:24:03;99975.31;;;17.39;65.04
42431;BME280;28070;47.462;19.036;2022-08-01T02:26:39;99977.88;;;17.40;65.05
42431;BME280;28070;47.462;19.036;2022-08-01T02:29:10;99968.16;;;17.39;65.03
42431;BME280;28070;47.462;19.036;2022-08-01T02:31:44;99974.47;;;17.38;64.77
42431;BME280;28070;47.462;19.036;2022-08-01T02:34:16;99977.34;;;17.35;65.01
42431;BME280;28070;47.462;19.036;2022-08-01T02:36:46;99969.84;;;17.27;65.52
42431;BME280;28070;47.462;19.036;2022-08-01T02:39:17;99980.38;;;17.16;66.46
42431;BME280;28070;47.462;19.036;2022-08-01T02:41:50;99971.47;;;17.03;68.23
42431;BME280;28070;47.462;19.036;2022-08-01T02:44:25;99968.16;;;16.85;70.18
42431;BME280;28070;47.462;19.036;2022-08-01T02:47:00;99981.16;;;16.77;68.85
42431;BME280;28070;47.462;19.036;2022-08-01T02:49:29;99973.22;;;16.75;68.96
42431;BME280;28070;47.462;19.036;2022-08-01T02:52:01;99972.38;;;16.75;68.49
42431;BME280;28070;47.462;19.036;2022-08-01T02:54:32;99968.59;;;16.79;68.53
42431;BME280;28070;47.462;19.036;2022-08-01T02:57:02;99968.47;;;16.81;68.07
42431;BME280;28070;47.462;19.036;2022-08-01T02:59:33;99957.91;;;16.79;68.34
42431;BME280;28070;47.462;19.036;2022-08-01T03:02:09;99964.09;;;16.80;68.24
42431;BME280;28070;47.462;19.036;2022-08-01T03:04:39;99964.97;;;16.80;68.13
42431;BME280;28070;47.462;19.036;2022-08-01T03:07:09;99965.34;;;16.74;69.29
42431;BME280;28070;47.462;19.036;2022-08-01T03:09:39;99964.56;;;16.72;70.29
42431;BME280;28070;47.462;19.036;2022-08-01T03:12:17;99962.47;;;16.63;70.92
42431;BME280;28070;47.462;19.036;2022-08-01T03:14:47;99962.00;;;16.56;70.40
42431;BME280;28070;47.462;19.036;2022-08-01T03:17:19;99960.31;;;16.55;70.35
42431;BME280;28070;47.462;19.036;2022-08-01T03:19:49;99962.47;;;16.48;72.21
42431;BME280;28070;47.462;19.036;2022-08-01T03:22:21;99959.56;;;16.39;72.83
42431;BME280;28070;47.462;19.036;2022-08-01T03:24:52;99957.56;;;16.28;74.31
42431;BME280;28070;47.462;19.036;2022-08-01T03:27:22;99957.06;;;16.22;74.39
42431;BME280;28070;47.462;19.036;2022-08-01T03:29:51;99952.13;;;16.15;74.83
42431;BME280;28070;47.462;19.036;2022-08-01T03:32:23;99954.13;;;16.12;75.65
42431;BME280;28070;47.462;19.036;2022-08-01T03:34:52;99953.16;;;16.13;75.97
42431;BME280;28070;47.462;19.036;2022-08-01T03:37:23;99949.75;;;16.11;76.10
42431;BME280;28070;47.462;19.036;2022-08-01T03:39:57;99945.66;;;16.05;76.30
42431;BME280;28070;47.462;19.036;2022-08-01T03:42:32;99951.94;;;16.04;76.56
42431;BME280;28070;47.462;19.036;2022-08-01T03:45:04;99959.84;;;16.06;76.95
42431;BME280;28070;47.462;19.036;2022-08-01T03:47:43;99957.38;;;16.03;77.05
42431;BME280;28070;47.462;19.036;2022-08-01T03:50:14;99961.75;;;16.04;77.70
42431;BME280;28070;47.462;19.036;2022-08-01T03:52:45;99959.28;;;16.01;77.55
42431;BME280;28070;47.462;19.036;2022-08-01T03:55:15;99963.91;;;16.11;75.91
42431;BME280;28070;47.462;19.036;2022-08-01T03:57:45;99962.03;;;16.13;76.25
42431;BME280;28070;47.462;19.036;2022-08-01T04:00:14;99966.88;;;16.21;75.17
42431;BME280;28070;47.462;19.036;2022-08-01T04:02:47;99967.63;;;16.37;73.00
42431;BME280;28070;47.462;19.036;2022-08-01T04:05:16;99976.94;;;16.59;71.86
42431;BME280;28070;47.462;19.036;2022-08-01T04:07:46;99982.66;;;16.81;70.69
42431;BME280;28070;47.462;19.036;2022-08-01T04:10:14;99984.53;;;16.93;70.26
42431;BME280;28070;47.462;19.036;2022-08-01T04:12:42;99986.53;;;17.04;69.76
42431;BME280;28070;47.462;19.036;2022-08-01T04:15:11;99985.53;;;17.19;68.81
42431;BME280;28070;47.462;19.036;2022-08-01T04:17:39;99993.00;;;17.27;68.91
42431;BME280;28070;47.462;19.036;2022-08-01T04:20:10;99987.06;;;17.36;68.19
42431;BME280;28070;47.462;19.036;2022-08-01T04:22:39;99985.41;;;17.48;67.77
42431;BME280;28070;47.462;19.036;2022-08-01T04:25:11;99985.63;;;17.57;67.05
42431;BME280;28070;47.462;19.036;2022-08-01T04:27:43;99986.06;;;17.64;66.98
42431;BME280;28070;47.462;19.036;2022-08-01T04:30:20;99984.84;;;17.70;66.93
42431;BME280;28070;47.462;19.036;2022-08-01T04:32:52;99986.97;;;17.77;67.06
42431;BME280;28070;47.462;19.036;2022-08-01T04:35:24;99986.78;;;17.80;66.43
42431;BME280;28070;47.462;19.036;2022-08-01T04:38:17;99982.81;;;17.86;66.14
42431;BME280;28070;47.462;19.036;2022-08-01T04:40:50;99977.16;;;17.90;66.05
42431;BME280;28070;47.462;19.036;2022-08-01T04:43:20;99974.81;;;17.99;65.59
42431;BME280;28070;47.462;19.036;2022-08-01T04:45:50;99978.78;;;18.06;65.35
42431;BME280;28070;47.462;19.036;2022-08-01T04:48:19;99973.13;;;18.10;65.38
42431;BME280;28070;47.462;19.036;2022-08-01T04:50:53;99983.59;;;18.13;66.15
42431;BME280;28070;47.462;19.036;2022-08-01T04:53:21;99978.13;;;18.15;65.89
42431;BME280;28070;47.462;19.036;2022-08-01T04:55:50;99982.44;;;18.17;66.08
42431;BME280;28070;47.462;19.036;2022-08-01T04:58:18;99983.91;;;18.21;65.61
42431;BME280;28070;47.462;19.036;2022-08-01T05:00:46;99982.75;;;18.26;65.55
42431;BME280;28070;47.462;19.036;2022-08-01T05:03:14;99986.59;;;18.34;65.50
42431;BME280;28070;47.462;19.036;2022-08-01T05:05:43;99989.13;;;18.48;65.75
42431;BME280;28070;47.462;19.036;2022-08-01T05:08:12;99978.88;;;18.55;65.45
42431;BME280;28070;47.462;19.036;2022-08-01T05:10:44;99984.84;;;18.59;64.96
42431;BME280;28070;47.462;19.036;2022-08-01T05:13:12;99982.59;;;18.65;64.40
42431;BME280;28070;47.462;19.036;2022-08-01T05:15:40;99973.19;;;18.72;63.91
42431;BME280;28070;47.462;19.036;2022-08-01T05:18:10;99977.88;;;18.81;63.58
42431;BME280;28070;47.462;19.036;2022-08-01T05:20:40;99994.09;;;18.91;63.47
42431;BME280;28070;47.462;19.036;2022-08-01T05:23:08;99985.53;;;18.99;63.43
42431;BME280;28070;47.462;19.036;2022-08-01T05:25:57;99987.41;;;19.09;63.37
42431;BME280;28070;47.462;19.036;2022-08-01T05:28:25;99984.81;;;19.21;63.09
42431;BME280;28070;47.462;19.036;2022-08-01T05:30:53;99983.53;;;19.37;62.53
42431;BME280;28070;47.462;19.036;2022-08-01T05:33:23;99986.16;;;19.50;62.62
42431;BME280;28070;47.462;19.036;2022-08-01T05:35:51;99985.88;;;19.66;61.93
42431;BME280;28070;47.462;19.036;2022-08-01T05:38:19;99975.19;;;19.77;61.69
42431;BME280;28070;47.462;19.036;2022-08-01T05:40:47;99980.59;;;19.88;61.65
42431;BME280;28070;47.462;19.036;2022-08-01T05:43:17;99980.88;;;19.96;61.12
42431;BME280;28070;47.462;19.036;2022-08-01T05:45:46;99990.13;;;20.04;61.17
42431;BME280;28070;47.462;19.036;2022-08-01T05:48:14;99987.09;;;20.08;61.17
42431;BME280;28070;47.462;19.036;2022-08-01T05:50:43;99986.72;;;20.13;60.57
42431;BME280;28070;47.462;19.036;2022-08-01T05:53:11;99988.91;;;20.19;60.15
42431;BME280;28070;47.462;19.036;2022-08-01T05:55:42;99984.91;;;20.24;59.72
42431;BME280;28070;47.462;19.036;2022-08-01T05:58:10;99984.28;;;20.32;59.39
42431;BME280;28070;47.462;19.036;2022-08-01T06:00:40;99976.41;;;20.42;59.06
42431;BME280;28070;47.462;19.036;2022-08-01T06:03:08;99975.22;;;20.46;58.91
42431;BME280;28070;47.462;19.036;2022-08-01T06:05:38;99984.22;;;20.56;58.50
42431;BME280;28070;47.462;19.036;2022-08-01T06:08:06;99982.13;;;20.71;57.98
42431;BME280;28070;47.462;19.036;2022-08-01T06:10:34;99988.97;;;20.86;57.59
42431;BME280;28070;47.462;19.036;2022-08-01T06:13:02;99986.38;;;20.96;56.86
42431;BME280;28070;47.462;19.036;2022-08-01T06:15:30;99984.66;;;21.06;55.79
42431;BME280;28070;47.462;19.036;2022-08-01T06:18:00;99987.19;;;21.19;55.40
42431;BME280;28070;47.462;19.036;2022-08-01T06:20:28;99994.25;;;21.31;56.04
42431;BME280;28070;47.462;19.036;2022-08-01T06:22:56;99986.41;;;21.39;55.98
42431;BME280;28070;47.462;19.036;2022-08-01T06:25:28;99991.88;;;21.49;55.04
42431;BME280;28070;47.462;19.036;2022-08-01T06:27:56;99987.19;;;21.62;54.29
42431;BME280;28070;47.462;19.036;2022-08-01T06:30:25;99982.97;;;21.69;54.13
42431;BME280;28070;47.462;19.036;2022-08-01T06:32:53;99985.88;;;21.77;54.65
42431;BME280;28070;47.462;19.036;2022-08-01T06:35:24;99992.78;;;21.91;53.56
42431;BME280;28070;47.462;19.036;2022-08-01T06:37:52;99996.53;;;21.99;53.06
42431;BME280;28070;47.462;19.036;2022-08-01T06:40:20;99995.75;;;22.09;52.62
42431;BME280;28070;47.462;19.036;2022-08-01T06:42:48;100003.44;;;22.13;52.10
42431;BME280;28070;47.462;19.036;2022-08-01T06:45:17;99998.38;;;22.20;51.34
42431;BME280;28070;47.462;19.036;2022-08-01T06:47:49;100007.34;;;22.30;51.36
42431;BME280;28070;47.462;19.036;2022-08-01T06:50:17;100005.09;;;22.35;51.14
42431;BME280;28070;47.462;19.036;2022-08-01T06:52:47;100001.66;;;22.54;50.47
42431;BME280;28070;47.462;19.036;2022-08-01T06:55:15;100001.25;;;22.58;50.19
42431;BME280;28070;47.462;19.036;2022-08-01T06:57:47;100000.00;;;22.63;50.21
42431;BME280;28070;47.462;19.036;2022-08-01T07:00:16;100000.16;;;22.71;49.33
42431;BME280;28070;47.462;19.036;2022-08-01T07:02:45;99990.03;;;22.84;49.94
42431;BME280;28070;47.462;19.036;2022-08-01T07:05:13;99997.44;;;22.92;49.83
42431;BME280;28070;47.462;19.036;2022-08-01T07:07:41;99996.03;;;22.97;50.14
42431;BME280;28070;47.462;19.036;2022-08-01T07:10:11;99991.81;;;23.04;46.87
42431;BME280;28070;47.462;19.036;2022-08-01T07:12:39;99977.66;;;23.22;44.62
42431;BME280;28070;47.462;19.036;2022-08-01T07:15:09;99987.03;;;23.56;42.68
42431;BME280;28070;47.462;19.036;2022-08-01T07:17:38;99982.09;;;23.81;42.62
42431;BME280;28070;47.462;19.036;2022-08-01T07:20:09;99980.50;;;23.97;40.60
42431;BME280;28070;47.462;19.036;2022-08-01T07:22:42;99984.88;;;24.08;40.79
42431;BME280;28070;47.462;19.036;2022-08-01T07:25:15;99988.56;;;24.17;40.71
42431;BME280;28070;47.462;19.036;2022-08-01T07:27:46;99986.69;;;24.27;40.32
42431;BME280;28070;47.462;19.036;2022-08-01T07:30:14;99990.94;;;24.39;39.48
42431;BME280;28070;47.462;19.036;2022-08-01T07:32:43;99987.66;;;24.45;39.41
42431;BME280;28070;47.462;19.036;2022-08-01T07:35:11;99993.56;;;24.58;39.53
42431;BME280;28070;47.462;19.036;2022-08-01T07:37:39;99986.59;;;24.65;38.76
42431;BME280;28070;47.462;19.036;2022-08-01T07:40:17;99988.59;;;24.91;36.86
42431;BME280;28070;47.462;19.036;2022-08-01T07:42:49;99993.91;;;25.10;35.85
42431;BME280;28070;47.462;19.036;2022-08-01T07:45:18;99987.13;;;25.24;35.62
42431;BME280;28070;47.462;19.036;2022-08-01T07:47:47;99987.84;;;25.44;36.27
42431;BME280;28070;47.462;19.036;2022-08-01T07:50:16;99992.41;;;25.61;35.11
42431;BME280;28070;47.462;19.036;2022-08-01T07:52:44;99999.13;;;25.75;34.47
42431;BME280;28070;47.462;19.036;2022-08-01T07:55:12;99988.84;;;25.61;33.73
42431;BME280;28070;47.462;19.036;2022-08-01T07:57:43;99993.78;;;25.65;34.13
42431;BME280;28070;47.462;19.036;2022-08-01T08:00:13;99995.09;;;25.61;34.11
42431;BME280;28070;47.462;19.036;2022-08-01T08:02:41;99989.41;;;25.82;34.72
42431;BME280;28070;47.462;19.036;2022-08-01T08:05:11;99989.63;;;26.15;34.70
42431;BME280;28070;47.462;19.036;2022-08-01T08:07:39;99987.56;;;26.34;34.44
42431;BME280;28070;47.462;19.036;2022-08-01T08:10:08;99986.66;;;26.26;33.21
42431;BME280;28070;47.462;19.036;2022-08-01T08:12:36;99983.59;;;26.21;33.51
42431;BME280;28070;47.462;19.036;2022-08-01T08:15:07;100001.28;;;26.07;32.94
42431;BME280;28070;47.462;19.036;2022-08-01T08:17:35;100004.81;;;26.07;32.93
42431;BME280;28070;47.462;19.036;2022-08-01T08:20:05;99994.16;;;26.06;33.60
42431;BME280;28070;47.462;19.036;2022-08-01T08:22:36;99998.97;;;25.94;34.68
42431;BME280;28070;47.462;19.036;2022-08-01T08:25:06;99997.72;;;25.89;35.13
42431;BME280;28070;47.462;19.036;2022-08-01T08:27:35;99999.44;;;25.90;35.01
42431;BME280;28070;47.462;19.036;2022-08-01T08:30:06;100005.84;;;25.89;35.19
42431;BME280;28070;47.462;19.036;2022-08-01T08:32:35;100007.72;;;25.88;35.68
42431;BME280;28070;47.462;19.036;2022-08-01T08:35:04;100016.63;;;25.80;35.26
42431;BME280;28070;47.462;19.036;2022-08-01T08:37:33;100014.28;;;25.68;35.23
42431;BME280;28070;47.462;19.036;2022-08-01T08:40:12;100020.59;;;25.59;35.25
42431;BME280;28070;47.462;19.036;2022-08-01T08:42:42;100023.91;;;25.52;35.92
42431;BME280;28070;47.462;19.036;2022-08-01T08:45:14;100026.09;;;25.49;35.81
42431;BME280;28070;47.462;19.036;2022-08-01T08:47:43;100032.13;;;25.61;36.15
42431;BME280;28070;47.462;19.036;2022-08-01T08:50:13;100032.97;;;25.43;35.98
42431;BME280;28070;47.462;19.036;2022-08-01T08:52:43;100031.56;;;25.39;35.56
42431;BME280;28070;47.462;19.036;2022-08-01T08:55:15;100046.22;;;25.37;35.87
42431;BME280;28070;47.462;19.036;2022-08-01T08:57:45;100044.53;;;25.36;35.71
42431;BME280;28070;47.462;19.036;2022-08-01T09:00:16;100047.63;;;25.41;36.09
42431;BME280;28070;47.462;19.036;2022-08-01T09:02:45;100038.06;;;25.46;36.19
42431;BME280;28070;47.462;19.036;2022-08-01T09:05:16;100036.53;;;25.44;35.91
42431;BME280;28070;47.462;19.036;2022-08-01T09:07:45;100037.75;;;25.49;35.76
42431;BME280;28070;47.462;19.036;2022-08-01T09:10:14;100042.00;;;25.52;35.24
42431;BME280;28070;47.462;19.036;2022-08-01T09:13:03;100032.75;;;25.55;35.37
42431;BME280;28070;47.462;19.036;2022-08-01T09:15:41;100034.47;;;25.73;34.81
42431;BME280;28070;47.462;19.036;2022-08-01T09:18:26;100036.00;;;25.76;34.44
42431;BME280;28070;47.462;19.036;2022-08-01T09:21:17;100039.03;;;25.73;34.48
42431;BME280;28070;47.462;19.036;2022-08-01T09:23:48;100026.66;;;25.88;34.57
42431;BME280;28070;47.462;19.036;2022-08-01T09:26:21;100031.22;;;25.88;34.91
42431;BME280;28070;47.462;19.036;2022-08-01T09:28:57;100028.09;;;26.00;34.84
42431;BME280;28070;47.462;19.036;2022-08-01T09:31:28;100033.59;;;26.08;34.73
42431;BME280;28070;47.462;19.036;2022-08-01T09:34:04;100036.22;;;26.00;34.42
42431;BME280;28070;47.462;19.036;2022-08-01T09:36:48;100031.91;;;26.07;34.47
42431;BME280;28070;47.462;19.036;2022-08-01T09:39:21;100032.66;;;26.18;34.45
42431;BME280;28070;47.462;19.036;2022-08-01T09:41:50;100031.09;;;26.15;34.99
42431;BME280;28070;47.462;19.036;2022-08-01T09:44:36;100029.22;;;26.16;35.79
42431;BME280;28070;47.462;19.036;2022-08-01T09:47:10;100026.94;;;26.03;35.88
42431;BME280;28070;47.462;19.036;2022-08-01T09:49:42;100031.41;;;26.12;36.35
42431;BME280;28070;47.462;19.036;2022-08-01T09:52:24;100027.44;;;26.24;36.28
42431;BME280;28070;47.462;19.036;2022-08-01T09:54:56;100030.69;;;26.46;36.27
42431;BME280;28070;47.462;19.036;2022-08-01T09:57:26;100039.38;;;26.57;35.83
42431;BME280;28070;47.462;19.036;2022-08-01T09:59:58;100039.31;;;26.75;35.42
42431;BME280;28070;47.462;19.036;2022-08-01T10:02:39;100030.78;;;26.96;35.08
42431;BME280;28070;47.462;19.036;2022-08-01T10:05:09;100034.66;;;26.93;34.85
42431;BME280;28070;47.462;19.036;2022-08-01T10:07:58;100032.94;;;26.92;35.09
42431;BME280;28070;47.462;19.036;2022-08-01T10:10:26;100036.13;;;26.88;34.78
42431;BME280;28070;47.462;19.036;2022-08-01T10:12:58;100032.22;;;27.16;35.11
42431;BME280;28070;47.462;19.036;2022-08-01T10:15:30;100034.97;;;27.24;34.77
42431;BME280;28070;47.462;19.036;2022-08-01T10:18:06;100033.44;;;27.22;34.56
42431;BME280;28070;47.462;19.036;2022-08-01T10:20:47;100041.53;;;27.14;34.85
42431;BME280;28070;47.462;19.036;2022-08-01T10:23:16;100038.94;;;27.04;34.60
42431;BME280;28070;47.462;19.036;2022-08-01T10:25:47;100036.78;;;27.08;35.21
42431;BME280;28070;47.462;19.036;2022-08-01T10:28:23;100038.47;;;27.09;34.77
42431;BME280;28070;47.462;19.036;2022-08-01T10:30:53;100033.91;;;27.09;35.51
42431;BME280;28070;47.462;19.036;2022-08-01T10:33:24;100038.00;;;27.21;34.73
42431;BME280;28070;47.462;19.036;2022-08-01T10:36:13;100033.91;;;27.17;34.93
42431;BME280;28070;47.462;19.036;2022-08-01T10:38:42;100027.00;;;27.31;34.85
42431;BME280;28070;47.462;19.036;2022-08-01T10:41:12;100031.09;;;27.43;34.74
42431;BME280;28070;47.462;19.036;2022-08-01T10:43:42;100019.31;;;27.69;34.13
42431;BME280;28070;47.462;19.036;2022-08-01T10:46:13;100019.84;;;27.72;34.18
42431;BME280;28070;47.462;19.036;2022-08-01T10:48:47;100013.88;;;27.77;34.02
42431;BME280;28070;47.462;19.036;2022-08-01T10:51:18;100013.06;;;27.84;33.43
42431;BME280;28070;47.462;19.036;2022-08-01T10:54:09;100013.56;;;27.72;34.21
42431;BME280;28070;47.462;19.036;2022-08-01T10:56:43;100016.09;;;27.73;34.70
42431;BME280;28070;47.462;19.036;2022-08-01T10:59:15;100011.19;;;27.85;34.00
42431;BME280;28070;47.462;19.036;2022-08-01T11:02:07;100011.50;;;28.06;33.90
42431;BME280;28070;47.462;19.036;2022-08-01T11:04:46;100006.06;;;28.47;33.82
42431;BME280;28070;47.462;19.036;2022-08-01T11:07:22;100011.97;;;28.59;32.98
42431;BME280;28070;47.462;19.036;2022-08-01T11:10:03;99996.75;;;28.33;33.22
42431;BME280;28070;47.462;19.036;2022-08-01T11:12:41;100002.50;;;28.06;33.80
42431;BME280;28070;47.462;19.036;2022-08-01T11:15:24;99999.47;;;28.09;34.33
42431;BME280;28070;47.462;19.036;2022-08-01T11:17:58;100008.44;;;28.18;33.93
42431;BME280;28070;47.462;19.036;2022-08-01T11:20:29;99994.69;;;28.19;33.88
42431;BME280;28070;47.462;19.036;2022-08-01T11:23:24;99996.03;;;28.48;33.71
42431;BME280;28070;47.462;19.036;2022-08-01T11:26:13;99993.63;;;28.61;33.56
42431;BME280;28070;47.462;19.036;2022-08-01T11:28:45;99983.31;;;28.95;33.20
42431;BME280;28070;47.462;19.036;2022-08-01T11:31:33;99994.66;;;28.60;33.92
42431;BME280;28070;47.462;19.036;2022-08-01T11:34:03;99983.91;;;28.66;34.23
42431;BME280;28070;47.462;19.036;2022-08-01T11:36:33;99983.59;;;28.61;33.88
42431;BME280;28070;47.462;19.036;2022-08-01T11:39:22;99991.97;;;28.19;33.98
42431;BME280;28070;47.462;19.036;2022-08-01T11:41:50;99987.41;;;28.36;33.99
42431;BME280;28070;47.462;19.036;2022-08-01T11:44:21;99991.81;;;28.21;34.90
42431;BME280;28070;47.462;19.036;2022-08-01T11:46:58;99990.28;;;28.18;35.20
42431;BME280;28070;47.462;19.036;2022-08-01T11:49:44;99992.31;;;28.32;34.49
42431;BME280;28070;47.462;19.036;2022-08-01T11:52:18;99992.84;;;28.36;35.37
42431;BME280;28070;47.462;19.036;2022-08-01T11:54:48;99999.97;;;28.29;34.96
42431;BME280;28070;47.462;19.036;2022-08-01T11:57:18;99986.22;;;28.14;35.04
42431;BME280;28070;47.462;19.036;2022-08-01T11:59:50;99997.38;;;28.60;34.17
42431;BME280;28070;47.462;19.036;2022-08-01T12:02:39;99985.38;;;28.85;33.88
42431;BME280;28070;47.462;19.036;2022-08-01T12:05:08;99980.94;;;28.92;33.57
42431;BME280;28070;47.462;19.036;2022-08-01T12:07:42;99985.84;;;29.28;32.82
42431;BME280;28070;47.462;19.036;2022-08-01T12:10:12;99982.88;;;29.69;32.17
42431;BME280;28070;47.462;19.036;2022-08-01T12:12:43;99986.91;;;29.96;32.38
42431;BME280;28070;47.462;19.036;2022-08-01T12:15:12;99985.94;;;30.11;31.90
42431;BME280;28070;47.462;19.036;2022-08-01T12:17:42;99993.38;;;30.47;31.33
42431;BME280;28070;47.462;19.036;2022-08-01T12:20:26;99993.44;;;30.77;30.66
42431;BME280;28070;47.462;19.036;2022-08-01T12:23:00;99989.16;;;30.44;29.98
42431;BME280;28070;47.462;19.036;2022-08-01T12:25:28;99994.75;;;29.76;31.74
42431;BME280;28070;47.462;19.036;2022-08-01T12:27:59;99987.88;;;29.80;31.75
42431;BME280;28070;47.462;19.036;2022-08-01T12:30:28;99994.75;;;29.76;31.91
42431;BME280;28070;47.462;19.036;2022-08-01T12:32:58;99986.41;;;29.92;30.91
42431;BME280;28070;47.462;19.036;2022-08-01T12:35:27;100000.69;;;29.94;31.13
42431;BME280;28070;47.462;19.036;2022-08-01T12:38:00;99978.31;;;29.84;31.09
42431;BME280;28070;47.462;19.036;2022-08-01T12:40:31;99977.56;;;30.65;30.54
42431;BME280;28070;47.462;19.036;2022-08-01T12:43:01;99977.03;;;31.06;30.55
42431;BME280;28070;47.462;19.036;2022-08-01T12:45:33;99979.44;;;31.30;28.87
42431;BME280;28070;47.462;19.036;2022-08-01T12:48:03;99985.66;;;30.36;30.24
42431;BME280;28070;47.462;19.036;2022-08-01T12:50:37;99976.63;;;29.83;30.07
42431;BME280;28070;47.462;19.036;2022-08-01T12:53:08;99977.47;;;30.06;30.57
42431;BME280;28070;47.462;19.036;2022-08-01T12:55:46;99974.94;;;29.82;30.91
42431;BME280;28070;47.462;19.036;2022-08-01T12:58:31;99976.28;;;29.86;31.21
42431;BME280;28070;47.462;19.036;2022-08-01T13:01:04;99973.94;;;30.35;31.02
42431;BME280;28070;47.462;19.036;2022-08-01T13:03:33;99978.91;;;30.61;30.19
42431;BME280;28070;47.462;19.036;2022-08-01T13:06:10;99978.91;;;31.20;29.05
42431;BME280;28070;47.462;19.036;2022-08-01T13:08:43;99980.78;;;31.20;28.95
42431;BME280;28070;47.462;19.036;2022-08-01T13:11:14;99977.47;;;31.24;29.03